createdAt,value
2022-08-05T00:00:54.811Z,100573.94
2022-08-05T00:01:56.727Z,100575.94
2022-08-05T00:03:15.533Z,100578.66
2022-08-05T00:04:18.106Z,100567.13
2022-08-05T00:06:03.178Z,100568.13
2022-08-05T00:06:51.729Z,100561.31
2022-08-05T00:07:59.815Z,100567.91
2022-08-05T00:09:12.781Z,100567.34
2022-08-05T00:10:15.055Z,100567.69
2022-08-05T00:11:20.550Z,100577.13
2022-08-05T00:12:25.857Z,100576.41
2022-08-05T00:13:38.368Z,100568.59
2022-08-05T00:14:41.549Z,100567.06
2022-08-05T00:15:58.146Z,100563.78
2022-08-05T00:17:04.774Z,100569.66
2022-08-05T00:18:22.788Z,100563.00
2022-08-05T00:19:33.715Z,100552.53
2022-08-05T00:20:42.511Z,100567.94
2022-08-05T00:21:46.926Z,100552.44
2022-08-05T00:22:57.423Z,100559.47
2022-08-05T00:24:10.436Z,100562.09
2022-08-05T00:25:13.146Z,100559.06
2022-08-05T00:26:20.748Z,100566.09
2022-08-05T00:27:35.795Z,100553.28
2022-08-05T00:28:41.207Z,100548.78
2022-08-05T00:29:45.672Z,100547.53
2022-08-05T00:30:51.920Z,100550.81
2022-08-05T00:32:12.220Z,100544.31
2022-08-05T00:34:42.395Z,100542.31
2022-08-05T00:35:03.867Z,100546.00
2022-08-05T00:36:16.343Z,100548.34
2022-08-05T00:37:50.721Z,100548.19
2022-08-05T00:38:51.796Z,100542.19
2022-08-05T00:39:58.625Z,100543.59
2022-08-05T00:41:01.118Z,100542.59
2022-08-05T00:42:05.631Z,100546.00
2022-08-05T00:43:10.574Z,100547.72
2022-08-05T00:44:20.894Z,100548.72
2022-08-05T00:45:38.765Z,100541.59
2022-08-05T00:46:47.539Z,100551.41
2022-08-05T00:47:57.822Z,100537.19
2022-08-05T00:49:10.232Z,100542.59
2022-08-05T00:50:16.510Z,100547.88
2022-08-05T00:51:51.100Z,100535.88
2022-08-05T00:52:45.400Z,100545.69
2022-08-05T00:54:02.681Z,100547.41
2022-08-05T00:55:05.418Z,100539.84
2022-08-05T00:56:09.956Z,100542.41
2022-08-05T00:57:13.887Z,100538.84
2022-08-05T00:58:19.577Z,100539.72
2022-08-05T00:59:21.375Z,100541.69
2022-08-05T01:00:25.870Z,100530.16
2022-08-05T01:01:42.797Z,100541.28
2022-08-05T01:02:52.484Z,100526.22
2022-08-05T01:03:54.908Z,100531.22
2022-08-05T01:04:59.307Z,100525.22
2022-08-05T01:06:01.252Z,100528.25
2022-08-05T01:07:07.082Z,100525.84
2022-08-05T01:08:41.246Z,100538.66
2022-08-05T01:09:40.126Z,100529.81
2022-08-05T01:10:51.616Z,100523.41
2022-08-05T01:11:59.753Z,100530.69
2022-08-05T01:13:13.232Z,100517.00
2022-08-05T01:14:28.410Z,100518.72
2022-08-05T01:15:36.441Z,100523.13
2022-08-05T01:16:46.923Z,100523.84
2022-08-05T01:17:53.650Z,100517.59
2022-08-05T01:19:00.880Z,100519.44
2022-08-05T01:20:23.924Z,100520.16
2022-08-05T01:21:38.170Z,100526.41
2022-08-05T01:22:48.566Z,100516.44
2022-08-05T01:23:58.148Z,100511.03
2022-08-05T01:25:25.034Z,100525.22
2022-08-05T01:27:17.939Z,100514.41
2022-08-05T01:28:24.253Z,100506.16
2022-08-05T01:29:31.699Z,100517.84
2022-08-05T01:30:37.104Z,100516.13
2022-08-05T01:31:45.163Z,100508.00
2022-08-05T01:32:47.191Z,100507.00
2022-08-05T01:33:53.593Z,100516.13
2022-08-05T01:34:57.846Z,100516.13
2022-08-05T01:36:02.682Z,100506.44
2022-08-05T01:37:09.028Z,100509.00
2022-08-05T01:38:24.584Z,100509.88
2022-08-05T01:39:45.664Z,100515.28
2022-08-05T01:40:49.217Z,100505.63
2022-08-05T01:41:54.077Z,100503.91
2022-08-05T01:42:56.082Z,100511.03
2022-08-05T01:44:00.470Z,100505.78
2022-08-05T01:45:03.191Z,100507.63
2022-08-05T01:46:16.633Z,100512.03
2022-08-05T01:47:39.406Z,100503.91
2022-08-05T01:48:41.856Z,100504.78
2022-08-05T01:50:01.641Z,100496.47
2022-08-05T01:51:08.703Z,100501.88
2022-08-05T01:52:18.074Z,100497.19
2022-08-05T01:53:54.640Z,100492.78
2022-08-05T01:54:52.008Z,100497.34
2022-08-05T01:55:55.667Z,100496.47
2022-08-05T01:58:10.982Z,100497.34
2022-08-05T01:58:40.724Z,100492.78
2022-08-05T01:59:49.360Z,100485.66
2022-08-05T02:00:51.470Z,100492.09
2022-08-05T02:01:56.290Z,100495.81
2022-08-05T02:03:03.670Z,100496.81
2022-08-05T02:04:08.299Z,100491.41
2022-08-05T02:05:12.610Z,100491.53
2022-08-05T02:06:37.345Z,100494.25
2022-08-05T02:07:40.099Z,100491.69
2022-08-05T02:08:54.753Z,100486.28
2022-08-05T02:10:00.593Z,100495.09
2022-08-05T02:11:08.443Z,100488.97
2022-08-05T02:12:19.734Z,100490.81
2022-08-05T02:13:28.513Z,100489.97
2022-08-05T02:14:55.864Z,100481.16
2022-08-05T02:16:02.425Z,100484.72
2022-08-05T02:17:08.533Z,100482.84
2022-08-05T02:18:32.320Z,100486.56
2022-08-05T02:19:47.010Z,100482.16
2022-08-05T02:20:58.815Z,100479.44
2022-08-05T02:22:25.733Z,100476.75
2022-08-05T02:23:33.484Z,100474.03
2022-08-05T02:24:39.794Z,100472.31
2022-08-05T02:25:49.355Z,100473.31
2022-08-05T02:26:56.120Z,100470.63
2022-08-05T02:28:00.370Z,100467.91
2022-08-05T02:29:05.046Z,100469.78
2022-08-05T02:30:07.297Z,100474.34
2022-08-05T02:31:15.223Z,100466.06
2022-08-05T02:32:24.064Z,100460.13
2022-08-05T02:33:38.592Z,100460.84
2022-08-05T02:34:43.666Z,100473.19
2022-08-05T02:35:59.100Z,100467.63
2022-08-05T02:37:06.909Z,100457.53
2022-08-05T02:38:09.696Z,100462.06
2022-08-05T02:39:14.277Z,100456.38
2022-08-05T02:40:19.010Z,100456.09
2022-08-05T02:41:29.003Z,100460.66
2022-08-05T02:42:38.322Z,100464.34
2022-08-05T02:44:06.378Z,100456.38
2022-08-05T02:45:07.423Z,100468.06
2022-08-05T02:46:09.222Z,100457.53
2022-08-05T02:47:21.171Z,100466.63
2022-08-05T02:48:29.488Z,100456.97
2022-08-05T02:49:35.984Z,100466.06
2022-08-05T02:50:39.155Z,100457.41
2022-08-05T02:52:03.483Z,100450.31
2022-08-05T02:53:06.788Z,100455.00
2022-08-05T02:54:36.431Z,100454.16
2022-08-05T02:55:53.940Z,100457.00
2022-08-05T02:57:03.130Z,100446.19
2022-08-05T02:58:10.222Z,100444.47
2022-08-05T02:59:17.220Z,100448.88
2022-08-05T03:00:20.375Z,100438.06
2022-08-05T03:01:28.117Z,100449.88
2022-08-05T03:02:30.706Z,100451.75
2022-08-05T03:04:04.248Z,100454.16
2022-08-05T03:04:58.007Z,100435.13
2022-08-05T03:06:54.185Z,100444.34
2022-08-05T03:07:40.553Z,100438.50
2022-08-05T03:08:49.103Z,100446.28
2022-08-05T03:09:56.956Z,100442.28
2022-08-05T03:11:54.694Z,100449.41
2022-08-05T03:12:32.202Z,100449.41
2022-08-05T03:13:51.606Z,100444.16
2022-08-05T03:14:58.722Z,100449.13
2022-08-05T03:16:00.532Z,100450.81
2022-08-05T03:17:08.980Z,100445.09
2022-08-05T03:18:10.968Z,100448.50
2022-08-05T03:19:20.347Z,100444.81
2022-08-05T03:20:36.112Z,100446.38
2022-08-05T03:21:41.324Z,100442.50
2022-08-05T03:22:50.615Z,100444.94
2022-08-05T03:23:55.217Z,100442.91
2022-08-05T03:24:58.362Z,100437.50
2022-08-05T03:26:30.082Z,100448.00
2022-08-05T03:27:59.074Z,100443.16
2022-08-05T03:28:58.447Z,100441.69
2022-08-05T03:30:08.377Z,100448.50
2022-08-05T03:31:18.318Z,100452.78
2022-08-05T03:32:35.316Z,100451.31
2022-08-05T03:33:50.956Z,100452.72
2022-08-05T03:34:54.690Z,100450.41
2022-08-05T03:35:59.761Z,100454.38
2022-08-05T03:37:05.349Z,100449.91
2022-08-05T03:38:07.351Z,100454.28
2022-08-05T03:39:13.073Z,100458.75
2022-08-05T03:40:31.257Z,100463.69
2022-08-05T03:41:38.808Z,100461.53
2022-08-05T03:42:52.437Z,100465.00
2022-08-05T03:44:08.367Z,100465.72
2022-08-05T03:45:21.618Z,100491.72
2022-08-05T03:46:29.990Z,100493.84
2022-08-05T03:47:35.576Z,100497.84
2022-08-05T03:48:46.776Z,100500.34
2022-08-05T03:49:51.388Z,100517.22
2022-08-05T03:52:39.201Z,100519.41
2022-08-05T03:55:34.272Z,100524.47
2022-08-05T03:55:54.209Z,100531.44
2022-08-05T03:56:11.002Z,100533.28
2022-08-05T03:57:17.907Z,100541.69
2022-08-05T03:58:19.881Z,100541.50
2022-08-05T03:59:47.080Z,100547.16
2022-08-05T04:00:53.840Z,100543.09
2022-08-05T04:01:58.918Z,100553.28
2022-08-05T04:03:02.897Z,100553.53
2022-08-05T04:04:10.829Z,100547.78
2022-08-05T04:05:13.011Z,100548.16
2022-08-05T04:06:18.159Z,100556.53
2022-08-05T04:07:25.651Z,100551.56
2022-08-05T04:08:36.353Z,100556.31
2022-08-05T04:09:53.074Z,100551.72
2022-08-05T04:10:56.219Z,100557.59
2022-08-05T04:12:01.862Z,100552.31
2022-08-05T04:13:04.498Z,100560.56
2022-08-05T04:14:09.228Z,100561.13
2022-08-05T04:15:19.799Z,100558.69
2022-08-05T04:16:32.344Z,100563.88
2022-08-05T04:17:55.714Z,100561.34
2022-08-05T04:19:00.184Z,100568.28
2022-08-05T04:20:02.518Z,100568.81
2022-08-05T04:21:07.290Z,100561.00
2022-08-05T04:22:13.091Z,100567.88
2022-08-05T04:24:05.273Z,100565.56
2022-08-05T04:24:52.920Z,100559.63
2022-08-05T04:26:00.272Z,100570.84
2022-08-05T04:27:05.374Z,100573.47
2022-08-05T04:28:11.283Z,100561.06
2022-08-05T04:29:17.195Z,100567.75
2022-08-05T04:30:18.986Z,100568.25
2022-08-05T04:31:27.620Z,100572.97
2022-08-05T04:32:40.541Z,100572.63
2022-08-05T04:34:18.048Z,100573.91
2022-08-05T04:35:17.748Z,100575.84
2022-08-05T04:36:49.390Z,100568.75
2022-08-05T04:38:02.738Z,100571.69
2022-08-05T04:39:10.498Z,100565.44
2022-08-05T04:40:14.953Z,100572.53
2022-08-05T04:41:37.089Z,100558.06
2022-08-05T04:42:40.669Z,100568.81
2022-08-05T04:43:48.023Z,100564.28
2022-08-05T04:44:53.911Z,100560.78
2022-08-05T04:45:58.373Z,100560.31
2022-08-05T04:47:09.589Z,100565.16
2022-08-05T04:48:18.519Z,100559.16
2022-08-05T04:50:01.147Z,100564.75
2022-08-05T04:51:02.753Z,100557.25
2022-08-05T04:52:06.165Z,100556.66
2022-08-05T04:53:13.062Z,100557.22
2022-08-05T04:54:15.839Z,100557.16
2022-08-05T04:56:05.048Z,100557.59
2022-08-05T04:56:44.590Z,100553.56
2022-08-05T04:57:47.863Z,100554.56
2022-08-05T04:58:56.090Z,100557.50
2022-08-05T04:59:58.443Z,100554.28
2022-08-05T05:01:03.355Z,100564.59
2022-08-05T05:02:36.260Z,100563.88
2022-08-05T05:03:41.705Z,100543.03
2022-08-05T05:04:49.682Z,100547.91
2022-08-05T05:06:39.568Z,100543.81
2022-08-05T05:07:23.999Z,100544.53
2022-08-05T05:08:33.824Z,100543.94
2022-08-05T05:09:35.595Z,100534.81
2022-08-05T05:10:55.824Z,100543.56
2022-08-05T05:12:02.803Z,100541.47
2022-08-05T05:13:07.537Z,100546.06
2022-08-05T05:14:09.533Z,100536.03
2022-08-05T05:15:56.116Z,100543.72
2022-08-05T05:16:42.462Z,100543.09
2022-08-05T05:17:56.898Z,100545.88
2022-08-05T05:19:18.768Z,100543.56
2022-08-05T05:20:23.864Z,100544.63
2022-08-05T05:21:33.274Z,100547.66
2022-08-05T05:22:35.366Z,100548.56
2022-08-05T05:24:02.155Z,100537.81
2022-08-05T05:25:16.374Z,100546.06
2022-08-05T05:26:28.689Z,100550.56
2022-08-05T05:27:44.776Z,100544.53
2022-08-05T05:28:50.401Z,100543.97
2022-08-05T05:30:04.272Z,100540.97
2022-08-05T05:31:09.719Z,100544.63
2022-08-05T05:32:12.720Z,100539.75
2022-08-05T05:33:23.257Z,100540.13
2022-08-05T05:34:26.950Z,100538.59
2022-08-05T05:35:37.639Z,100540.00
2022-08-05T05:36:40.043Z,100533.06
2022-08-05T05:37:59.593Z,100546.06
2022-08-05T05:39:03.814Z,100544.38
2022-08-05T05:40:09.322Z,100545.41
2022-08-05T05:41:14.253Z,100539.75
2022-08-05T05:42:20.916Z,100541.81
2022-08-05T05:43:54.828Z,100549.16
2022-08-05T05:44:47.552Z,100540.13
2022-08-05T05:45:49.639Z,100548.13
2022-08-05T05:46:54.066Z,100540.97
2022-08-05T05:48:06.035Z,100540.59
2022-08-05T05:49:22.624Z,100521.94
2022-08-05T05:50:25.880Z,100535.59
2022-08-05T05:51:30.314Z,100541.91
2022-08-05T05:52:51.948Z,100536.84
2022-08-05T05:53:59.534Z,100541.03
2022-08-05T05:55:07.388Z,100541.25
2022-08-05T05:56:26.235Z,100544.91
2022-08-05T05:57:42.861Z,100538.59
2022-08-05T05:58:56.831Z,100535.69
2022-08-05T06:00:06.353Z,100533.63
2022-08-05T06:01:17.413Z,100544.19
2022-08-05T06:02:32.685Z,100526.47
2022-08-05T06:04:01.285Z,100528.41
2022-08-05T06:05:04.074Z,100528.72
2022-08-05T06:06:15.055Z,100519.19
2022-08-05T06:07:16.995Z,100536.81
2022-08-05T06:08:31.587Z,100533.06
2022-08-05T06:09:52.633Z,100526.53
2022-08-05T06:10:59.364Z,100535.03
2022-08-05T06:12:02.901Z,100526.44
2022-08-05T06:13:07.834Z,100537.84
2022-08-05T06:14:10.492Z,100534.00
2022-08-05T06:15:23.996Z,100529.44
2022-08-05T06:16:28.518Z,100529.06
2022-08-05T06:17:53.360Z,100530.56
2022-08-05T06:18:55.963Z,100533.56
2022-08-05T06:20:04.660Z,100526.22
2022-08-05T06:21:07.907Z,100529.22
2022-08-05T06:22:27.906Z,100530.50
2022-08-05T06:23:44.214Z,100534.56
2022-08-05T06:24:48.296Z,100522.22
2022-08-05T06:26:12.269Z,100530.84
2022-08-05T06:28:11.762Z,100534.06
2022-08-05T06:28:43.709Z,100532.63
2022-08-05T06:30:02.659Z,100536.03
2022-08-05T06:31:18.026Z,100532.03
2022-08-05T06:32:25.931Z,100538.81
2022-08-05T06:34:08.045Z,100530.44
2022-08-05T06:34:56.306Z,100527.97
2022-08-05T06:36:05.664Z,100540.22
2022-08-05T06:37:11.240Z,100520.41
2022-08-05T06:38:16.834Z,100542.81
2022-08-05T06:39:18.693Z,100538.19
2022-08-05T06:40:28.039Z,100535.91
2022-08-05T06:41:34.708Z,100531.09
2022-08-05T06:42:44.974Z,100531.38
2022-08-05T06:43:57.714Z,100535.38
2022-08-05T06:45:05.586Z,100528.72
2022-08-05T06:46:13.407Z,100530.00
2022-08-05T06:48:11.633Z,100525.84
2022-08-05T06:48:54.766Z,100525.84
2022-08-05T06:50:05.388Z,100532.19
2022-08-05T06:51:09.575Z,100529.06
2022-08-05T06:52:36.599Z,100525.94
2022-08-05T06:53:39.517Z,100522.63
2022-08-05T06:54:41.456Z,100526.84
2022-08-05T06:55:46.027Z,100526.47
2022-08-05T06:56:54.968Z,100528.59
2022-08-05T06:58:29.203Z,100522.72
2022-08-05T06:59:38.729Z,100528.66
2022-08-05T07:00:44.122Z,100532.69
2022-08-05T07:01:49.165Z,100529.53
2022-08-05T07:02:54.946Z,100524.47
2022-08-05T07:03:59.345Z,100526.16
2022-08-05T07:05:01.269Z,100526.00
2022-08-05T07:06:14.347Z,100524.50
2022-08-05T07:07:35.245Z,100502.38
2022-08-05T07:08:47.306Z,100519.94
2022-08-05T07:09:55.651Z,100519.53
2022-08-05T07:11:00.385Z,100524.59
2022-08-05T07:12:06.567Z,100514.28
2022-08-05T07:13:57.052Z,100525.50
2022-08-05T07:15:00.657Z,100519.59
2022-08-05T07:17:57.180Z,100519.84
2022-08-05T07:18:01.903Z,100531.28
2022-08-05T07:19:06.591Z,100525.38
2022-08-05T07:22:00.585Z,100522.84
2022-08-05T07:23:00.921Z,100525.19
2022-08-05T07:24:02.763Z,100527.75
2022-08-05T07:25:21.956Z,100529.63
2022-08-05T07:26:25.981Z,100526.06
2022-08-05T07:27:58.047Z,100527.13
2022-08-05T07:28:55.494Z,100518.06
2022-08-05T07:30:22.190Z,100525.03
2022-08-05T07:31:40.870Z,100532.03
2022-08-05T07:32:53.337Z,100527.84
2022-08-05T07:33:59.920Z,100519.38
2022-08-05T07:36:03.319Z,100516.41
2022-08-05T07:36:26.136Z,100524.03
2022-08-05T07:37:36.057Z,100522.94
2022-08-05T07:38:44.204Z,100520.66
2022-08-05T07:40:26.933Z,100530.81
2022-08-05T07:41:35.092Z,100533.59
2022-08-05T07:42:36.382Z,100533.81
2022-08-05T07:43:38.371Z,100529.38
2022-08-05T07:44:43.227Z,100528.78
2022-08-05T07:45:57.613Z,100520.72
2022-08-05T07:47:06.210Z,100527.72
2022-08-05T07:48:11.091Z,100527.09
2022-08-05T07:49:18.170Z,100527.28
2022-08-05T07:50:24.979Z,100523.28
2022-08-05T07:51:52.830Z,100525.81
2022-08-05T07:52:56.163Z,100521.59
2022-08-05T07:54:01.908Z,100519.50
2022-08-05T07:55:03.937Z,100516.53
2022-08-05T07:57:00.691Z,100522.84
2022-08-05T07:58:02.446Z,100523.09
2022-08-05T07:59:04.843Z,100511.88
2022-08-05T08:00:14.536Z,100515.28
2022-08-05T08:01:16.874Z,100515.66
2022-08-05T08:02:30.976Z,100511.03
2022-08-05T08:03:52.067Z,100513.56
2022-08-05T08:04:54.222Z,100519.06
2022-08-05T08:05:58.618Z,100507.25
2022-08-05T08:07:01.050Z,100522.47
2022-08-05T08:08:12.335Z,100503.00
2022-08-05T08:09:14.377Z,100515.06
2022-08-05T08:10:20.543Z,100513.59
2022-08-05T08:11:27.564Z,100518.88
2022-08-05T08:12:49.269Z,100503.88
2022-08-05T08:14:00.839Z,100514.44
2022-08-05T08:15:04.535Z,100514.00
2022-08-05T08:16:35.755Z,100520.75
2022-08-05T08:17:35.389Z,100497.31
2022-08-05T08:18:37.493Z,100517.13
2022-08-05T08:20:22.360Z,100514.63
2022-08-05T08:21:09.818Z,100521.16
2022-08-05T08:22:19.464Z,100522.22
2022-08-05T08:24:02.054Z,100522.44
2022-08-05T08:24:51.863Z,100519.84
2022-08-05T08:26:00.560Z,100523.25
2022-08-05T08:27:07.428Z,100530.84
2022-08-05T08:28:18.120Z,100513.50
2022-08-05T08:30:04.571Z,100519.44
2022-08-05T08:30:50.063Z,100518.13
2022-08-05T08:31:54.623Z,100516.91
2022-08-05T08:32:56.431Z,100510.53
2022-08-05T08:34:01.683Z,100507.78
2022-08-05T08:35:03.645Z,100506.75
2022-08-05T08:36:39.188Z,100512.63
2022-08-05T08:37:36.693Z,100521.53
2022-08-05T08:38:38.525Z,100517.72
2022-08-05T08:39:49.555Z,100509.69
2022-08-05T08:40:54.223Z,100510.09
2022-08-05T08:42:00.127Z,100518.13
2022-08-05T08:44:55.737Z,100510.53
2022-08-05T08:45:19.289Z,100514.34
2022-08-05T08:45:59.493Z,100521.09
2022-08-05T08:47:02.262Z,100521.50
2022-08-05T08:48:23.174Z,100520.44
2022-08-05T08:50:07.740Z,100518.97
2022-08-05T08:51:22.225Z,100525.69
2022-08-05T08:52:17.858Z,100523.16
2022-08-05T08:53:22.245Z,100522.25
2022-08-05T08:54:27.422Z,100521.63
2022-08-05T08:56:04.215Z,100526.47
2022-08-05T08:56:54.049Z,100515.63
2022-08-05T08:58:01.883Z,100518.78
2022-08-05T08:59:14.651Z,100512.66
2022-08-05T09:00:23.827Z,100510.31
2022-08-05T09:01:28.178Z,100517.06
2022-08-05T09:02:33.682Z,100526.78
2022-08-05T09:03:40.631Z,100517.00
2022-08-05T09:05:16.093Z,100518.28
2022-08-05T09:06:17.198Z,100517.41
2022-08-05T09:07:29.001Z,100518.41
2022-08-05T09:08:33.674Z,100522.41
2022-08-05T09:09:35.904Z,100514.53
2022-08-05T09:10:46.926Z,100511.34
2022-08-05T09:11:52.141Z,100511.53
2022-08-05T09:13:04.518Z,100515.50
2022-08-05T09:14:54.257Z,100517.81
2022-08-05T09:15:31.359Z,100516.31
2022-08-05T09:16:33.226Z,100515.91
2022-08-05T09:17:42.881Z,100518.66
2022-08-05T09:18:50.450Z,100513.75
2022-08-05T09:19:55.061Z,100511.41
2022-08-05T09:21:11.525Z,100512.06
2022-08-05T09:22:31.375Z,100510.13
2022-08-05T09:23:43.597Z,100508.22
2022-08-05T09:24:56.936Z,100507.38
2022-08-05T09:26:20.604Z,100511.81
2022-08-05T09:28:04.817Z,100506.09
2022-08-05T09:28:56.217Z,100511.16
2022-08-05T09:30:01.216Z,100509.88
2022-08-05T09:31:43.881Z,100501.38
2022-08-05T09:32:46.602Z,100500.56
2022-08-05T09:33:52.175Z,100497.16
2022-08-05T09:34:56.311Z,100497.16
2022-08-05T09:36:11.895Z,100491.25
2022-08-05T09:38:12.454Z,100487.88
2022-08-05T09:38:59.136Z,100486.59
2022-08-05T09:40:01.035Z,100491.69
2022-08-05T09:41:06.853Z,100492.94
2022-08-05T09:42:13.611Z,100488.69
2022-08-05T09:43:41.959Z,100480.19
2022-08-05T09:44:50.474Z,100483.53
2022-08-05T09:46:06.525Z,100488.25
2022-08-05T09:47:17.026Z,100482.72
2022-08-05T09:48:26.911Z,100475.56
2022-08-05T09:49:54.497Z,100479.44
2022-08-05T09:51:00.573Z,100475.63
2022-08-05T09:52:16.704Z,100475.50
2022-08-05T09:53:23.044Z,100473.97
2022-08-05T09:54:31.337Z,100471.63
2022-08-05T09:55:56.773Z,100470.53
2022-08-05T09:57:03.189Z,100475.66
2022-08-05T09:58:25.150Z,100472.53
2022-08-05T09:59:27.929Z,100474.81
2022-08-05T10:00:35.135Z,100479.19
2022-08-05T10:01:45.843Z,100470.66
2022-08-05T10:02:51.702Z,100476.16
2022-08-05T10:04:00.142Z,100477.41
2022-08-05T10:05:32.946Z,100471.44
2022-08-05T10:06:35.333Z,100480.53
2022-08-05T10:08:10.576Z,100462.38
2022-08-05T10:09:27.772Z,100475.22
2022-08-05T10:10:40.694Z,100471.81
2022-08-05T10:11:46.425Z,100462.50
2022-08-05T10:12:51.203Z,100475.78
2022-08-05T10:13:57.422Z,100464.78
2022-08-05T10:15:16.961Z,100462.03
2022-08-05T10:16:52.471Z,100462.03
2022-08-05T10:18:20.288Z,100456.50
2022-08-05T10:19:31.951Z,100451.00
2022-08-05T10:20:59.874Z,100461.56
2022-08-05T10:22:09.004Z,100440.03
2022-08-05T10:23:34.677Z,100459.44
2022-08-05T10:24:46.159Z,100453.13
2022-08-05T10:25:52.566Z,100458.47
2022-08-05T10:27:00.543Z,100462.50
2022-08-05T10:28:13.551Z,100460.34
2022-08-05T10:30:07.230Z,100450.16
2022-08-05T10:32:52.800Z,100457.75
2022-08-05T10:33:02.200Z,100464.16
2022-08-05T10:33:39.305Z,100449.66
2022-08-05T10:34:41.721Z,100464.03
2022-08-05T10:35:52.370Z,100457.22
2022-08-05T10:37:04.484Z,100458.53
2022-08-05T10:38:08.430Z,100452.56
2022-08-05T10:39:24.804Z,100454.88
2022-08-05T10:40:58.207Z,100448.66
2022-08-05T10:42:22.751Z,100453.94
2022-08-05T10:43:57.048Z,100441.72
2022-08-05T10:45:01.173Z,100437.91
2022-08-05T10:46:10.557Z,100446.75
2022-08-05T10:47:26.069Z,100443.31
2022-08-05T10:48:56.381Z,100445.63
2022-08-05T10:50:20.678Z,100431.16
2022-08-05T10:51:28.859Z,100419.44
2022-08-05T10:52:49.845Z,100431.16
2022-08-05T10:53:54.498Z,100419.22
2022-08-05T10:55:03.668Z,100430.41
2022-08-05T10:56:21.405Z,100428.88
2022-08-05T10:57:31.780Z,100427.38
2022-08-05T10:58:48.690Z,100430.97
2022-08-05T11:00:18.162Z,100420.78
2022-08-05T11:01:55.471Z,100425.47
2022-08-05T11:03:10.002Z,100418.66
2022-08-05T11:04:31.712Z,100421.41
2022-08-05T11:05:36.572Z,100420.16
2022-08-05T11:07:00.598Z,100403.63
2022-08-05T11:08:21.689Z,100425.91
2022-08-05T11:09:39.475Z,100408.09
2022-08-05T11:11:00.997Z,100419.53
2022-08-05T11:12:10.975Z,100419.53
2022-08-05T11:13:27.600Z,100404.47
2022-08-05T11:15:19.026Z,100420.34
2022-08-05T11:16:01.904Z,100410.97
2022-08-05T11:17:59.623Z,100405.22
2022-08-05T11:18:47.252Z,100409.44
2022-08-05T11:20:10.821Z,100412.59
2022-08-05T11:21:40.785Z,100409.59
2022-08-05T11:22:54.125Z,100417.66
2022-08-05T11:24:14.771Z,100406.97
2022-08-05T11:26:04.686Z,100411.19
2022-08-05T11:27:18.959Z,100404.97
2022-08-05T11:28:20.749Z,100408.59
2022-08-05T11:29:37.687Z,100391.72
2022-08-05T11:31:01.622Z,100397.84
2022-08-05T11:32:27.423Z,100410.97
2022-08-05T11:33:44.032Z,100417.09
2022-08-05T11:34:54.380Z,100411.09
2022-08-05T11:36:07.969Z,100414.00
2022-08-05T11:38:26.694Z,100407.56
2022-08-05T11:38:51.847Z,100415.97
2022-08-05T11:40:03.440Z,100395.97
2022-08-05T11:41:35.021Z,100403.81
2022-08-05T11:42:37.825Z,100401.41
2022-08-05T11:44:04.462Z,100404.78
2022-08-05T11:45:23.556Z,100406.00
2022-08-05T11:46:37.556Z,100399.97
2022-08-05T11:47:49.763Z,100398.78
2022-08-05T11:48:52.724Z,100390.38
2022-08-05T11:50:03.411Z,100386.16
2022-08-05T11:51:05.217Z,100395.88
2022-08-05T11:52:11.890Z,100392.06
2022-08-05T11:53:13.839Z,100398.50
2022-08-05T11:54:35.017Z,100392.50
2022-08-05T11:55:37.004Z,100388.69
2022-08-05T11:56:54.230Z,100390.97
2022-08-05T11:58:10.719Z,100397.81
2022-08-05T11:59:21.381Z,100393.75
2022-08-05T12:00:30.250Z,100405.38
2022-08-05T12:01:32.379Z,100395.81
2022-08-05T12:02:40.105Z,100397.84
2022-08-05T12:03:43.315Z,100374.56
2022-08-05T12:05:00.847Z,100400.88
2022-08-05T12:06:05.796Z,100397.16
2022-08-05T12:07:11.308Z,100392.59
2022-08-05T12:08:18.264Z,100392.75
2022-08-05T12:09:38.630Z,100392.66
2022-08-05T12:10:49.287Z,100388.31
2022-08-05T12:11:53.552Z,100386.34
2022-08-05T12:12:59.550Z,100390.28
2022-08-05T12:14:05.421Z,100387.06
2022-08-05T12:15:12.843Z,100385.97
2022-08-05T12:16:19.455Z,100382.97
2022-08-05T12:18:02.534Z,100384.91
2022-08-05T12:18:49.061Z,100384.44
2022-08-05T12:20:26.289Z,100385.00
2022-08-05T12:21:30.619Z,100377.94
2022-08-05T12:22:36.278Z,100378.06
2022-08-05T12:23:51.634Z,100384.06
2022-08-05T12:24:56.223Z,100377.09
2022-08-05T12:25:58.065Z,100381.91
2022-08-05T12:27:09.482Z,100379.13
2022-08-05T12:28:11.802Z,100370.34
2022-08-05T12:29:23.027Z,100369.53
2022-08-05T12:30:32.083Z,100365.94
2022-08-05T12:31:43.480Z,100361.47
2022-08-05T12:32:53.665Z,100360.41
2022-08-05T12:33:58.424Z,100358.22
2022-08-05T12:35:03.924Z,100370.72
2022-08-05T12:36:08.619Z,100352.81
2022-08-05T12:37:17.555Z,100351.75
2022-08-05T12:38:23.645Z,100360.03
2022-08-05T12:39:38.500Z,100357.88
2022-08-05T12:40:43.618Z,100354.03
2022-08-05T12:41:50.129Z,100359.03
2022-08-05T12:42:59.867Z,100355.09
2022-08-05T12:44:28.500Z,100361.22
2022-08-05T12:45:49.592Z,100365.56
2022-08-05T12:46:55.395Z,100365.19
2022-08-05T12:48:17.190Z,100353.28
2022-08-05T12:49:25.556Z,100355.44
2022-08-05T12:50:30.978Z,100357.88
2022-08-05T12:52:13.552Z,100356.19
2022-08-05T12:53:01.347Z,100367.00
2022-08-05T12:54:03.908Z,100362.66
2022-08-05T12:55:28.270Z,100360.50
2022-08-05T12:56:35.114Z,100349.81
2022-08-05T12:58:49.881Z,100349.56
2022-08-05T12:59:21.110Z,100349.66
2022-08-05T13:02:00.628Z,100349.19
2022-08-05T13:02:10.051Z,100347.03
2022-08-05T13:03:13.488Z,100347.03
2022-08-05T13:04:21.304Z,100340.66
2022-08-05T13:05:24.042Z,100346.34
2022-08-05T13:06:29.327Z,100346.09
2022-08-05T13:07:59.415Z,100338.16
2022-08-05T13:08:57.838Z,100331.78
2022-08-05T13:10:04.758Z,100337.22
2022-08-05T13:11:07.012Z,100339.13
2022-08-05T13:12:13.260Z,100338.75
2022-08-05T13:14:06.559Z,100341.03
2022-08-05T13:14:46.966Z,100335.38
2022-08-05T13:16:12.146Z,100334.44
2022-08-05T13:17:31.572Z,100337.53
2022-08-05T13:18:53.014Z,100332.13
2022-08-05T13:20:02.243Z,100330.53
2022-08-05T13:21:04.739Z,100327.88
2022-08-05T13:22:09.338Z,100327.16
2022-08-05T13:23:14.061Z,100321.94
2022-08-05T13:24:36.594Z,100327.00
2022-08-05T13:25:52.502Z,100322.53
2022-08-05T13:27:01.039Z,100314.47
2022-08-05T13:28:06.888Z,100316.22
2022-08-05T13:29:12.687Z,100320.19
2022-08-05T13:30:35.365Z,100322.94
2022-08-05T13:32:04.100Z,100321.25
2022-08-05T13:33:07.995Z,100325.47
2022-08-05T13:34:21.798Z,100320.78
2022-08-05T13:35:42.837Z,100317.16
2022-08-05T13:36:52.127Z,100315.13
2022-08-05T13:37:55.460Z,100312.84
2022-08-05T13:39:00.370Z,100311.19
2022-08-05T13:40:14.424Z,100306.28
2022-08-05T13:41:19.126Z,100304.59